createdAt,value
2022-11-26T00:00:00.450Z,11.83
2022-11-26T00:02:44.417Z,12.33
2022-11-26T00:05:32.521Z,12.07
2022-11-26T00:08:21.993Z,11.80
2022-11-26T00:11:12.691Z,12.60
2022-11-26T00:13:56.478Z,14.23
2022-11-26T00:16:40.394Z,12.57
2022-11-26T00:19:24.161Z,12.93
2022-11-26T00:22:10.798Z,10.30
2022-11-26T00:24:57.301Z,11.60
2022-11-26T00:27:41.014Z,10.57
2022-11-26T00:30:27.065Z,11.03
2022-11-26T00:33:10.856Z,11.07
2022-11-26T00:35:58.563Z,9.40
2022-11-26T00:38:42.975Z,9.33
2022-11-26T00:41:32.113Z,10.80
2022-11-26T00:44:19.459Z,9.57
2022-11-26T00:47:03.291Z,9.00
2022-11-26T00:49:46.977Z,9.60
2022-11-26T00:52:34.223Z,11.53
2022-11-26T00:55:28.780Z,9.67
2022-11-26T00:58:25.896Z,9.87
2022-11-26T01:01:12.666Z,10.30
2022-11-26T01:03:58.454Z,11.47
2022-11-26T01:06:44.325Z,11.10
2022-11-26T01:09:28.080Z,11.33
2022-11-26T01:12:15.164Z,11.77
2022-11-26T01:15:00.361Z,12.50
2022-11-26T01:17:44.157Z,10.83
2022-11-26T01:20:30.095Z,12.10
2022-11-26T01:23:15.346Z,11.73
2022-11-26T01:26:02.470Z,10.63
2022-11-26T01:28:50.049Z,10.40
2022-11-26T01:31:35.302Z,11.33
2022-11-26T01:34:19.105Z,11.23
2022-11-26T01:37:02.903Z,10.80
2022-11-26T01:39:46.606Z,11.17
2022-11-26T01:42:42.383Z,11.97
2022-11-26T01:45:26.837Z,10.23
2022-11-26T01:48:24.709Z,9.87
2022-11-26T01:51:10.508Z,11.77
2022-11-26T01:53:56.460Z,10.67
2022-11-26T01:56:44.723Z,10.20
2022-11-26T01:59:30.670Z,11.50
2022-11-26T02:02:14.798Z,10.17
2022-11-26T02:05:06.975Z,11.03
2022-11-26T02:07:51.861Z,11.30
2022-11-26T02:10:35.872Z,10.07
2022-11-26T02:13:19.786Z,10.73
2022-11-26T02:16:12.588Z,11.50
2022-11-26T02:19:18.553Z,8.33
2022-11-26T02:22:10.330Z,12.30
2022-11-26T02:25:02.591Z,10.67
2022-11-26T02:28:18.064Z,11.83
2022-11-26T02:31:08.439Z,12.17
2022-11-26T02:33:58.411Z,10.93
2022-11-26T02:36:48.407Z,11.10
2022-11-26T02:39:32.437Z,11.37
2022-11-26T02:42:28.243Z,11.43
2022-11-26T02:45:15.619Z,11.00
2022-11-26T02:48:04.596Z,11.50
2022-11-26T02:50:51.578Z,9.60
2022-11-26T02:53:36.973Z,9.33
2022-11-26T02:56:23.730Z,11.97
2022-11-26T02:59:08.207Z,10.63
2022-11-26T03:01:57.203Z,10.73
2022-11-26T03:04:47.175Z,10.63
2022-11-26T03:07:33.630Z,10.53
2022-11-26T03:10:20.256Z,10.97
2022-11-26T03:13:04.078Z,11.20
2022-11-26T03:15:47.794Z,10.57
2022-11-26T03:18:31.616Z,10.07
2022-11-26T03:21:16.694Z,9.23
2022-11-26T03:24:00.492Z,10.87
2022-11-26T03:26:44.455Z,12.70
2022-11-26T03:29:28.458Z,10.23
2022-11-26T03:32:12.445Z,11.27
2022-11-26T03:34:56.153Z,11.57
2022-11-26T03:37:41.255Z,12.47
2022-11-26T03:40:24.969Z,10.33
2022-11-26T03:43:08.704Z,11.40
2022-11-26T03:45:52.683Z,10.70
2022-11-26T03:48:36.521Z,9.60
2022-11-26T03:51:20.231Z,10.63
2022-11-26T03:54:05.547Z,11.50
2022-11-26T03:56:49.209Z,12.00
2022-11-26T03:59:33.228Z,10.73
2022-11-26T04:02:17.420Z,10.37
2022-11-26T04:05:01.128Z,9.90
2022-11-26T04:07:47.001Z,11.23
2022-11-26T04:10:32.353Z,11.60
2022-11-26T04:13:16.106Z,11.13
2022-11-26T04:16:00.041Z,10.33
2022-11-26T04:18:44.069Z,10.67
2022-11-26T04:21:27.848Z,10.57
2022-11-26T04:24:11.615Z,13.63
2022-11-26T04:26:56.715Z,15.17
2022-11-26T04:29:40.904Z,12.87
2022-11-26T04:32:25.570Z,10.53
2022-11-26T04:35:10.202Z,12.90
2022-11-26T04:37:54.046Z,11.93
2022-11-26T04:40:37.967Z,13.50
2022-11-26T04:43:23.079Z,11.20
2022-11-26T04:46:07.201Z,11.87
2022-11-26T04:48:50.951Z,12.87
2022-11-26T04:51:34.706Z,12.53
2022-11-26T04:54:18.453Z,13.67
2022-11-26T04:57:02.317Z,12.40
2022-11-26T04:59:47.452Z,11.67
2022-11-26T05:02:31.195Z,11.17
2022-11-26T05:05:15.374Z,11.83
2022-11-26T05:08:00.354Z,10.90
2022-11-26T05:10:44.093Z,12.00
2022-11-26T05:13:27.948Z,10.50
2022-11-26T05:16:13.278Z,11.33
2022-11-26T05:18:57.099Z,12.13
2022-11-26T05:21:40.897Z,17.37
2022-11-26T05:24:24.882Z,14.43
2022-11-26T05:27:08.918Z,14.70
2022-11-26T05:29:52.633Z,14.10
2022-11-26T05:32:37.749Z,14.60
2022-11-26T05:35:21.869Z,12.67
2022-11-26T05:38:05.978Z,14.60
2022-11-26T05:40:49.791Z,15.03
2022-11-26T05:43:33.510Z,12.87
2022-11-26T05:46:19.265Z,15.00
2022-11-26T05:49:04.467Z,13.07
2022-11-26T05:51:48.252Z,13.77
2022-11-26T05:54:32.073Z,14.33
2022-11-26T05:57:15.819Z,11.67
2022-11-26T05:59:59.635Z,12.60
2022-11-26T06:02:43.920Z,12.50
2022-11-26T06:05:29.337Z,12.33
2022-11-26T06:08:13.361Z,12.83
2022-11-26T06:10:57.419Z,11.63
2022-11-26T06:13:41.528Z,11.10
2022-11-26T06:16:25.534Z,12.23
2022-11-26T06:19:09.540Z,11.47
2022-11-26T06:21:54.674Z,10.50
2022-11-26T06:24:38.847Z,11.63
2022-11-26T06:27:22.948Z,11.13
2022-11-26T06:30:09.483Z,10.33
2022-11-26T06:32:53.344Z,11.37
2022-11-26T06:35:37.332Z,12.27
2022-11-26T06:38:22.711Z,11.33
2022-11-26T06:41:08.543Z,12.43
2022-11-26T06:43:52.421Z,12.27
2022-11-26T06:46:36.871Z,12.30
2022-11-26T06:49:20.684Z,11.97
2022-11-26T06:52:04.878Z,10.93
2022-11-26T06:54:51.318Z,12.07
2022-11-26T06:57:35.262Z,12.77
2022-11-26T07:00:19.690Z,11.43
2022-11-26T07:03:03.441Z,11.60
2022-11-26T07:05:47.253Z,12.97
2022-11-26T07:08:31.144Z,12.23
2022-11-26T07:11:16.314Z,11.37
2022-11-26T07:14:01.554Z,14.70
2022-11-26T07:16:45.471Z,13.37
2022-11-26T07:19:29.332Z,12.17
2022-11-26T07:22:13.181Z,17.63
2022-11-26T07:24:57.031Z,13.77
2022-11-26T07:27:42.567Z,12.77
2022-11-26T07:30:26.628Z,15.57
2022-11-26T07:33:10.315Z,13.63
2022-11-26T07:35:54.098Z,14.47
2022-11-26T07:38:38.160Z,12.67
2022-11-26T07:41:21.954Z,13.70
2022-11-26T07:44:07.305Z,15.77
2022-11-26T07:46:51.215Z,17.67
2022-11-26T07:49:35.003Z,12.17
2022-11-26T07:52:18.864Z,12.13
2022-11-26T07:55:04.207Z,13.50
2022-11-26T07:57:49.662Z,13.03
2022-11-26T08:00:34.692Z,12.43
2022-11-26T08:03:18.502Z,14.17
2022-11-26T08:06:02.238Z,14.90
2022-11-26T08:08:46.413Z,14.57
2022-11-26T08:11:31.787Z,11.83
2022-11-26T08:14:15.619Z,13.27
2022-11-26T08:17:00.648Z,12.27
2022-11-26T08:19:44.370Z,11.93
2022-11-26T08:22:30.390Z,10.93
2022-11-26T08:25:14.309Z,12.67
2022-11-26T08:27:58.078Z,13.17
2022-11-26T08:30:41.781Z,12.07
2022-11-26T08:33:26.918Z,14.10
2022-11-26T08:36:11.610Z,11.83
2022-11-26T08:38:55.361Z,11.67
2022-11-26T08:41:39.089Z,11.20
2022-11-26T08:44:22.998Z,11.27
2022-11-26T08:47:06.839Z,10.53
2022-11-26T08:49:51.873Z,11.00
2022-11-26T08:52:35.632Z,11.30
2022-11-26T08:55:23.747Z,11.07
2022-11-26T08:58:08.111Z,14.93
2022-11-26T09:00:51.833Z,11.73
2022-11-26T09:03:35.674Z,11.97
2022-11-26T09:06:22.184Z,13.13
2022-11-26T09:09:17.667Z,14.40
2022-11-26T09:12:03.327Z,11.70
2022-11-26T09:14:47.106Z,11.73
2022-11-26T09:17:30.856Z,11.87
2022-11-26T09:20:15.128Z,11.93
2022-11-26T09:23:00.330Z,13.10
2022-11-26T09:25:44.087Z,11.67
2022-11-26T09:28:29.080Z,13.40
2022-11-26T09:31:12.902Z,11.73
2022-11-26T09:33:57.770Z,10.07
2022-11-26T09:36:41.965Z,11.03
2022-11-26T09:39:28.646Z,17.07
2022-11-26T09:42:23.100Z,11.27
2022-11-26T09:45:19.424Z,14.37
2022-11-26T09:48:04.947Z,11.73
2022-11-26T09:50:50.633Z,12.70
2022-11-26T09:53:37.845Z,13.00
2022-11-26T09:56:27.410Z,11.97
2022-11-26T09:59:14.570Z,11.73
2022-11-26T10:01:58.369Z,10.07
2022-11-26T10:04:42.574Z,10.40
2022-11-26T10:07:48.216Z,11.03
2022-11-26T10:10:39.527Z,10.13
2022-11-26T10:13:34.200Z,10.43
2022-11-26T10:16:27.996Z,10.93
2022-11-26T10:19:19.882Z,12.00
2022-11-26T10:22:12.721Z,9.70
2022-11-26T10:24:58.398Z,8.07
2022-11-26T10:27:42.515Z,9.07
2022-11-26T10:30:29.505Z,9.60
2022-11-26T10:33:19.320Z,8.70
2022-11-26T10:36:07.774Z,8.33
2022-11-26T10:38:51.573Z,9.60
2022-11-26T10:41:38.174Z,8.67
2022-11-26T10:44:33.772Z,9.43
2022-11-26T10:47:27.894Z,7.40
2022-11-26T10:53:27.215Z,8.77
2022-11-26T10:56:19.869Z,9.37
2022-11-26T10:59:06.894Z,8.60
2022-11-26T11:01:52.903Z,8.57
2022-11-26T11:04:46.395Z,9.73
2022-11-26T11:07:37.102Z,9.17
2022-11-26T11:10:24.241Z,8.03
2022-11-26T11:13:13.645Z,9.03
2022-11-26T11:16:02.828Z,8.87
2022-11-26T11:18:52.412Z,8.10
2022-11-26T11:21:43.824Z,7.83
2022-11-26T11:24:30.820Z,8.10
2022-11-26T11:27:25.282Z,9.13
2022-11-26T11:30:25.346Z,6.83
2022-11-26T11:33:19.172Z,7.23
2022-11-26T11:36:06.190Z,6.90
2022-11-26T11:38:53.324Z,6.70
2022-11-26T11:41:43.454Z,6.23
2022-11-26T11:44:38.583Z,6.90
2022-11-26T11:47:37.317Z,8.33
2022-11-26T11:50:25.335Z,7.90
2022-11-26T11:53:35.378Z,6.63
2022-11-26T11:56:25.894Z,10.00
2022-11-26T11:59:37.335Z,7.67
2022-11-26T12:02:39.201Z,6.80
2022-11-26T12:06:07.200Z,7.80
2022-11-26T12:09:04.129Z,8.30
2022-11-26T12:11:57.479Z,8.97
2022-11-26T12:14:47.445Z,8.70
2022-11-26T12:17:36.853Z,8.00
2022-11-26T12:20:27.221Z,7.67
2022-11-26T12:23:25.575Z,7.93
2022-11-26T12:26:16.488Z,8.17
2022-11-26T12:29:05.382Z,7.47
2022-11-26T12:31:53.987Z,8.10
2022-11-26T12:34:45.069Z,8.10
2022-11-26T12:37:32.823Z,7.73
2022-11-26T12:40:32.658Z,6.83
2022-11-26T12:43:21.332Z,6.97
2022-11-26T12:46:11.104Z,7.27
2022-11-26T12:49:02.528Z,9.57
2022-11-26T12:51:51.275Z,8.17
2022-11-26T12:54:41.478Z,6.10
2022-11-26T12:57:29.396Z,7.10
2022-11-26T13:00:19.976Z,6.93
2022-11-26T13:03:17.037Z,5.83
2022-11-26T13:06:05.208Z,7.50
2022-11-26T13:08:57.711Z,6.13
2022-11-26T13:11:47.362Z,5.77
2022-11-26T13:14:42.187Z,7.60
2022-11-26T13:17:32.441Z,5.60
2022-11-26T13:20:38.004Z,6.70
2022-11-26T13:23:35.850Z,6.80
2022-11-26T13:26:33.919Z,6.23
2022-11-26T13:29:32.467Z,5.80
2022-11-26T13:33:02.085Z,6.97
2022-11-26T13:36:13.298Z,5.40
2022-11-26T13:39:23.189Z,6.53
2022-11-26T13:42:22.056Z,6.13
2022-11-26T13:45:53.477Z,7.57
2022-11-26T13:48:48.574Z,6.90
2022-11-26T13:51:40.935Z,7.63
2022-11-26T13:54:30.131Z,6.70
2022-11-26T13:57:17.676Z,5.83
2022-11-26T14:00:05.080Z,5.93
2022-11-26T14:02:51.153Z,5.87
2022-11-26T14:06:09.912Z,6.83
2022-11-26T14:08:55.575Z,7.57
2022-11-26T14:12:00.463Z,7.93
2022-11-26T14:14:46.136Z,5.43
2022-11-26T14:17:35.099Z,6.40
2022-11-26T14:20:19.248Z,7.77
2022-11-26T14:23:43.689Z,5.27
2022-11-26T14:26:34.444Z,9.87
2022-11-26T14:29:19.315Z,7.17
2022-11-26T14:32:03.887Z,5.90
2022-11-26T14:34:53.081Z,7.53
2022-11-26T14:37:36.971Z,7.50
2022-11-26T14:40:26.923Z,7.53
2022-11-26T14:43:16.797Z,5.33
2022-11-26T14:46:06.553Z,5.07
2022-11-26T14:48:51.182Z,5.37
2022-11-26T14:51:36.013Z,5.60
2022-11-26T14:54:26.659Z,6.67
2022-11-26T14:57:17.246Z,5.27
2022-11-26T15:00:06.550Z,7.10
2022-11-26T15:02:50.688Z,11.63
2022-11-26T15:05:42.070Z,5.43
2022-11-26T15:08:28.893Z,10.63
2022-11-26T15:11:15.089Z,5.67
2022-11-26T15:14:02.503Z,5.27
2022-11-26T15:16:54.428Z,5.87
2022-11-26T15:19:39.500Z,4.43
2022-11-26T15:22:29.724Z,8.50
2022-11-26T15:25:18.605Z,10.97
2022-11-26T15:28:04.261Z,10.57
2022-11-26T15:30:56.105Z,17.93
2022-11-26T15:33:42.416Z,18.27
2022-11-26T15:36:26.284Z,18.60
2022-11-26T15:39:26.178Z,16.77
2022-11-26T15:42:27.299Z,15.60
2022-11-26T15:45:16.769Z,12.10
2022-11-26T15:48:00.716Z,15.30
2022-11-26T15:50:48.203Z,13.97
2022-11-26T15:53:36.376Z,12.33
2022-11-26T15:56:21.844Z,16.97
2022-11-26T15:59:14.716Z,13.03
2022-11-26T16:02:12.265Z,13.83
2022-11-26T16:04:57.140Z,15.27
2022-11-26T16:07:58.213Z,14.33
2022-11-26T16:10:42.303Z,17.40
2022-11-26T16:13:28.774Z,13.30
2022-11-26T16:16:18.437Z,15.07
2022-11-26T16:19:04.439Z,15.60
2022-11-26T16:21:50.194Z,12.43
2022-11-26T16:24:39.062Z,12.27
2022-11-26T16:27:27.308Z,14.90
2022-11-26T16:30:15.896Z,13.47
2022-11-26T16:32:59.667Z,13.17
2022-11-26T16:35:45.807Z,13.73
2022-11-26T16:38:30.586Z,9.30
2022-11-26T16:41:17.546Z,9.20
2022-11-26T16:44:01.429Z,9.63
2022-11-26T16:46:46.015Z,7.70
2022-11-26T16:49:30.419Z,10.63
2022-11-26T16:52:17.334Z,8.50
2022-11-26T16:55:01.327Z,8.60
2022-11-26T16:57:49.911Z,7.27
2022-11-26T17:00:36.004Z,9.27
2022-11-26T17:03:22.775Z,8.10
2022-11-26T17:06:13.805Z,8.43
2022-11-26T17:08:58.450Z,9.50
2022-11-26T17:11:42.200Z,8.47
2022-11-26T17:14:27.370Z,7.90
2022-11-26T17:17:13.418Z,9.63
2022-11-26T17:19:57.880Z,8.23
2022-11-26T17:22:41.652Z,8.03
2022-11-26T17:25:25.416Z,7.87
2022-11-26T17:28:12.397Z,9.03
2022-11-26T17:30:57.626Z,11.83
2022-11-26T17:33:41.522Z,11.47
2022-11-26T17:36:25.868Z,8.97
2022-11-26T17:39:12.212Z,12.50
2022-11-26T17:41:56.095Z,10.57
2022-11-26T17:44:39.911Z,8.77
2022-11-26T17:47:27.321Z,12.60
2022-11-26T17:50:18.819Z,10.87
2022-11-26T17:53:02.637Z,12.60
2022-11-26T17:55:46.454Z,12.37
2022-11-26T17:58:30.270Z,10.87
2022-11-26T18:01:15.014Z,14.17
2022-11-26T18:04:00.181Z,12.47
2022-11-26T18:06:53.758Z,19.13
2022-11-26T18:09:38.130Z,17.47
2022-11-26T18:12:25.667Z,18.23
2022-11-26T18:15:10.157Z,18.10
2022-11-26T18:17:56.293Z,17.73
2022-11-26T18:20:44.330Z,19.37
2022-11-26T18:23:28.192Z,23.00
2022-11-26T18:26:17.495Z,16.33
2022-11-26T18:29:02.560Z,19.93
2022-11-26T18:31:46.347Z,24.53
2022-11-26T18:34:30.167Z,20.17
2022-11-26T18:37:15.375Z,16.30
2022-11-26T18:39:59.482Z,12.83
2022-11-26T18:42:43.461Z,13.23
2022-11-26T18:45:27.143Z,17.00
2022-11-26T18:48:10.887Z,16.60
2022-11-26T18:50:58.121Z,18.77
2022-11-26T18:53:43.728Z,16.00
2022-11-26T18:56:27.466Z,18.77
2022-11-26T18:59:11.575Z,16.27
2022-11-26T19:01:55.304Z,15.90
2022-11-26T19:04:39.550Z,17.67
2022-11-26T19:07:23.334Z,17.50
2022-11-26T19:10:09.754Z,15.47
2022-11-26T19:12:53.560Z,17.73
2022-11-26T19:15:42.160Z,17.67
2022-11-26T19:18:25.956Z,16.20
2022-11-26T19:21:18.625Z,14.50
2022-11-26T19:24:04.092Z,16.33
2022-11-26T19:26:49.555Z,15.53
2022-11-26T19:29:33.529Z,19.33
2022-11-26T19:32:17.358Z,19.23
2022-11-26T19:35:05.593Z,16.47
2022-11-26T19:37:50.254Z,16.37
2022-11-26T19:40:34.225Z,17.37
2022-11-26T19:43:19.664Z,16.57
2022-11-26T19:46:05.328Z,18.43
2022-11-26T19:48:51.682Z,16.57
2022-11-26T19:51:35.761Z,17.50
2022-11-26T19:54:19.756Z,17.63
2022-11-26T19:57:03.832Z,16.73
2022-11-26T19:59:49.338Z,17.50
2022-11-26T20:02:33.491Z,16.63
2022-11-26T20:05:17.803Z,15.47
2022-11-26T20:08:01.710Z,16.30
2022-11-26T20:10:49.887Z,16.80
2022-11-26T20:13:34.863Z,18.47
2022-11-26T20:16:22.085Z,19.67
2022-11-26T20:19:06.118Z,17.33
2022-11-26T20:21:51.242Z,17.43
2022-11-26T20:24:35.336Z,15.33
2022-11-26T20:27:19.275Z,17.17
2022-11-26T20:30:03.230Z,17.03
2022-11-26T20:32:49.238Z,20.10
2022-11-26T20:35:33.102Z,19.63
2022-11-26T20:38:17.011Z,17.50
2022-11-26T20:41:01.059Z,21.00
2022-11-26T20:43:45.239Z,19.83
2022-11-26T20:46:49.133Z,18.23
2022-11-26T20:49:37.805Z,19.53
2022-11-26T20:52:25.105Z,18.80
2022-11-26T20:55:10.410Z,19.13
2022-11-26T20:57:54.545Z,17.90
2022-11-26T21:00:42.594Z,17.50
2022-11-26T21:03:28.085Z,16.10
2022-11-26T21:06:14.285Z,17.47
2022-11-26T21:09:00.078Z,17.20
2022-11-26T21:11:44.137Z,19.10
2022-11-26T21:14:29.719Z,17.20
2022-11-26T21:17:14.643Z,16.97
2022-11-26T21:19:58.615Z,17.00
2022-11-26T21:22:44.965Z,19.40
2022-11-26T21:25:28.901Z,19.53
2022-11-26T21:28:14.983Z,16.23
2022-11-26T21:30:59.049Z,16.27
2022-11-26T21:33:43.005Z,14.93
2022-11-26T21:36:27.561Z,14.57
2022-11-26T21:39:16.453Z,14.73
2022-11-26T21:42:00.382Z,13.37
2022-11-26T21:44:44.341Z,14.70
2022-11-26T21:47:28.269Z,14.00
2022-11-26T21:50:12.567Z,14.13
2022-11-26T21:52:56.401Z,15.17
2022-11-26T21:55:41.548Z,14.83
2022-11-26T21:58:25.410Z,12.63
2022-11-26T22:01:13.628Z,12.53
2022-11-26T22:04:00.524Z,13.57
2022-11-26T22:06:45.258Z,14.20
2022-11-26T22:09:29.108Z,13.97
2022-11-26T22:12:14.285Z,13.83
2022-11-26T22:14:57.967Z,13.27
2022-11-26T22:17:41.834Z,15.93
2022-11-26T22:20:25.529Z,15.20
2022-11-26T22:23:09.413Z,15.90
2022-11-26T22:25:53.109Z,15.67
2022-11-26T22:28:39.311Z,12.40
2022-11-26T22:31:26.832Z,14.47
2022-11-26T22:34:12.874Z,12.30
2022-11-26T22:36:56.648Z,14.70
2022-11-26T22:39:40.542Z,16.13
2022-11-26T22:42:24.566Z,15.87
2022-11-26T22:45:11.649Z,14.87
2022-11-26T22:47:55.496Z,16.63
2022-11-26T22:50:39.282Z,13.97
2022-11-26T22:53:23.783Z,16.33
2022-11-26T22:56:08.251Z,15.03
2022-11-26T22:58:52.067Z,13.07
2022-11-26T23:01:38.800Z,14.90
2022-11-26T23:04:22.513Z,16.53
2022-11-26T23:07:06.297Z,14.57
2022-11-26T23:09:50.266Z,15.37
2022-11-26T23:12:34.123Z,15.80
2022-11-26T23:15:17.977Z,14.67
2022-11-26T23:18:03.249Z,16.40
2022-11-26T23:20:47.272Z,15.60
2022-11-26T23:23:31.237Z,15.03
2022-11-26T23:26:21.821Z,16.87
2022-11-26T23:29:09.528Z,15.87
2022-11-26T23:31:53.474Z,16.93
2022-11-26T23:34:38.614Z,16.80
2022-11-26T23:37:22.296Z,18.43
2022-11-26T23:40:07.775Z,17.07
2022-11-26T23:42:51.502Z,16.63
2022-11-26T23:45:35.270Z,19.63
2022-11-26T23:48:19.084Z,15.03
2022-11-26T23:51:07.425Z,16.37
2022-11-26T23:53:52.093Z,16.13
2022-11-26T23:56:36.315Z,17.03
2022-11-26T23:59:20.278Z,16.07
